Time;durP1;ratioP1;P1;durP2;ratioP2;P2;SDS_P1;SDS_P2;PMS_P1;PMS_P2;Temp;Humidity;BMP_temperature;BMP_pressure;BME280_temperature;BME280_humidity;BME280_pressure;Samples;Min_cycle;Max_cycle;Signal;HPM_P1;HPM_P2
2022/10/31 00:01:01;;;;;;;8.45;4.13;;;11.60;87.80;;;;;;5051772;28;20600;-66
2022/10/31 00:03:29;;;;;;;6.47;4.13;;;11.50;87.50;;;;;;5051748;28;20197;-66
2022/10/31 00:05:57;;;;;;;6.82;4.55;;;11.40;88.30;;;;;;5047200;28;20252;-65
2022/10/31 00:08:25;;;;;;;10.00;5.40;;;11.40;89.60;;;;;;5051464;28;20707;-65
2022/10/31 00:10:52;;;;;;;12.45;5.93;;;11.40;90.70;;;;;;5051195;28;20190;-65
2022/10/31 00:13:19;;;;;;;8.80;4.57;;;11.40;91.70;;;;;;5052031;28;20198;-66
2022/10/31 00:15:46;;;;;;;11.00;4.65;;;11.40;92.10;;;;;;5052509;28;20230;-66
2022/10/31 00:18:14;;;;;;;9.68;4.35;;;11.40;91.90;;;;;;5052890;28;20213;-66
2022/10/31 00:20:45;;;;;;;8.35;4.45;;;11.40;91.80;;;;;;5053487;28;20556;-65
2022/10/31 00:23:12;;;;;;;13.07;4.35;;;11.40;91.60;;;;;;5052706;28;20248;-66
2022/10/31 00:25:41;;;;;;;11.90;4.85;;;11.40;91.10;;;;;;5032749;28;20202;-66
2022/10/31 00:28:11;;;;;;;7.18;4.82;;;11.50;90.80;;;;;;5032818;28;20218;-66
2022/10/31 00:30:38;;;;;;;8.63;4.05;;;11.50;90.40;;;;;;5052407;28;20182;-66
2022/10/31 00:33:06;;;;;;;8.82;5.45;;;11.50;90.20;;;;;;5052739;28;20202;-66
2022/10/31 00:35:33;;;;;;;6.25;4.10;;;11.60;90.40;;;;;;5052677;28;20249;-65
2022/10/31 00:38:00;;;;;;;5.60;4.22;;;11.60;90.70;;;;;;5052818;28;20560;-66
2022/10/31 00:40:27;;;;;;;8.10;4.03;;;11.60;90.40;;;;;;5052488;28;20632;-65
2022/10/31 00:42:56;;;;;;;8.25;4.28;;;11.60;89.80;;;;;;5052234;28;20190;-66
2022/10/31 00:45:23;;;;;;;7.75;5.15;;;11.50;89.20;;;;;;5052416;28;20190;-66
2022/10/31 00:47:50;;;;;;;11.77;4.60;;;11.50;89.60;;;;;;5051913;28;20221;-66
2022/10/31 00:50:17;;;;;;;7.78;4.65;;;11.50;89.30;;;;;;5052324;28;20182;-65
2022/10/31 00:52:44;;;;;;;6.78;4.28;;;11.50;89.10;;;;;;5052531;28;20194;-66
2022/10/31 00:55:11;;;;;;;10.05;4.70;;;11.50;88.60;;;;;;5051450;28;20277;-66
2022/10/31 00:57:39;;;;;;;5.70;3.90;;;11.40;88.30;;;;;;5052433;28;20191;-65
2022/10/31 01:00:09;;;;;;;13.20;4.07;;;11.30;86.70;;;;;;5052157;28;20197;-66
2022/10/31 01:02:36;;;;;;;7.20;4.50;;;11.20;86.10;;;;;;5051468;28;20191;-66
2022/10/31 01:05:03;;;;;;;12.45;4.35;;;11.10;87.00;;;;;;5052352;28;20186;-65
2022/10/31 01:07:30;;;;;;;8.02;3.90;;;11.00;88.60;;;;;;5052230;28;20220;-66
2022/10/31 01:09:57;;;;;;;5.13;3.30;;;10.90;89.00;;;;;;5052046;28;20256;-66
2022/10/31 01:12:24;;;;;;;10.85;4.00;;;10.70;89.00;;;;;;5052193;28;20285;-66
2022/10/31 01:14:51;;;;;;;6.65;3.92;;;10.80;89.20;;;;;;5051965;28;20186;-66
2022/10/31 01:17:20;;;;;;;14.30;4.22;;;10.70;89.50;;;;;;5051872;28;20222;-66
2022/10/31 01:19:47;;;;;;;11.25;4.00;;;10.70;90.20;;;;;;5051463;28;20232;-66
2022/10/31 01:22:14;;;;;;;7.82;4.88;;;10.70;90.50;;;;;;5052284;28;20191;-67
2022/10/31 01:24:41;;;;;;;8.18;5.05;;;10.80;90.60;;;;;;5051819;28;20560;-66
2022/10/31 01:27:08;;;;;;;6.32;3.90;;;10.80;90.70;;;;;;5052062;28;20190;-67
2022/10/31 01:29:36;;;;;;;4.15;2.72;;;10.80;90.40;;;;;;5051831;28;20528;-66
2022/10/31 01:32:03;;;;;;;7.07;3.78;;;10.70;90.40;;;;;;5052442;28;20571;-66
2022/10/31 01:34:31;;;;;;;6.45;4.18;;;10.70;90.60;;;;;;5051856;28;20190;-67
2022/10/31 01:36:58;;;;;;;5.80;3.42;;;10.70;90.50;;;;;;5052048;28;20592;-66
2022/10/31 01:39:26;;;;;;;11.38;4.15;;;10.70;90.80;;;;;;5051891;28;20682;-69
2022/10/31 01:41:54;;;;;;;6.68;3.40;;;10.70;91.30;;;;;;5051700;28;20194;-66
2022/10/31 01:44:52;;;;;;;5.63;3.60;;;10.80;91.70;;;;;;5052128;28;20592;-66
2022/10/31 01:47:24;;;;;;;8.95;3.85;;;10.80;91.60;;;;;;5032144;28;20679;-66
2022/10/31 01:49:55;;;;;;;8.52;3.65;;;10.90;91.30;;;;;;5034098;28;20202;-66
2022/10/31 01:52:29;;;;;;;8.95;3.97;;;10.90;91.30;;;;;;5052089;28;20206;-66
2022/10/31 01:55:01;;;;;;;9.52;3.80;;;10.80;91.10;;;;;;5051865;28;20194;-66
2022/10/31 01:57:29;;;;;;;12.02;4.65;;;10.80;90.70;;;;;;5051915;28;20652;-66
2022/10/31 02:00:00;;;;;;;7.30;4.50;;;10.80;91.10;;;;;;5051522;28;20186;-66
2022/10/31 02:02:30;;;;;;;8.25;4.25;;;10.70;91.40;;;;;;5052331;28;20193;-66
2022/10/31 02:05:00;;;;;;;7.68;4.60;;;10.70;91.20;;;;;;5051722;28;20222;-66
2022/10/31 02:07:34;;;;;;;5.35;3.78;;;10.70;91.20;;;;;;5054712;28;20197;-66
2022/10/31 02:10:02;;;;;;;7.35;4.03;;;10.70;91.80;;;;;;5055504;28;20193;-66
2022/10/31 02:12:31;;;;;;;7.13;4.22;;;10.70;91.90;;;;;;5055684;28;20194;-66
2022/10/31 02:14:58;;;;;;;4.90;3.28;;;10.60;92.10;;;;;;5055501;28;20182;-66
2022/10/31 02:17:26;;;;;;;4.65;2.70;;;10.60;91.80;;;;;;5055176;28;20226;-66
2022/10/31 02:20:01;;;;;;;5.40;3.20;;;10.60;91.40;;;;;;5054839;28;20535;-66
2022/10/31 02:22:36;;;;;;;4.45;3.20;;;10.70;91.40;;;;;;5055760;28;20289;-66
2022/10/31 02:25:24;;;;;;;9.13;4.38;;;10.70;91.60;;;;;;5055075;28;20181;-66
2022/10/31 02:28:14;;;;;;;6.75;3.22;;;10.70;91.80;;;;;;5055388;28;20201;-67
2022/10/31 02:30:56;;;;;;;6.90;3.63;;;10.80;91.80;;;;;;5054613;28;20189;-66
2022/10/31 02:33:28;;;;;;;5.78;3.78;;;10.80;91.50;;;;;;5055279;28;20198;-66
2022/10/31 02:36:05;;;;;;;7.45;3.17;;;10.80;91.30;;;;;;5053862;28;20563;-66
2022/10/31 02:38:46;;;;;;;4.15;2.80;;;10.80;90.80;;;;;;5055202;28;20233;-66
2022/10/31 02:41:20;;;;;;;3.50;2.30;;;10.70;90.50;;;;;;5054741;28;20197;-65
2022/10/31 02:43:55;;;;;;;6.28;2.70;;;10.70;90.20;;;;;;5055248;28;20201;-64
2022/10/31 02:46:31;;;;;;;5.60;3.47;;;10.60;90.10;;;;;;5054518;28;20190;-64
2022/10/31 02:49:03;;;;;;;4.65;3.03;;;10.60;90.00;;;;;;5054689;28;20229;-64
2022/10/31 02:51:30;;;;;;;4.10;2.67;;;10.50;88.80;;;;;;5054719;28;20197;-65
2022/10/31 02:53:57;;;;;;;6.30;3.78;;;10.40;88.80;;;;;;5054482;28;20194;-65
2022/10/31 02:56:24;;;;;;;4.50;3.08;;;10.40;88.50;;;;;;5054948;28;20191;-67
2022/10/31 02:58:58;;;;;;;6.30;2.80;;;10.30;87.40;;;;;;5054184;28;20629;-66
2022/10/31 03:01:44;;;;;;;6.25;3.30;;;10.20;88.70;;;;;;5054798;28;20186;-66
2022/10/31 03:04:29;;;;;;;8.50;3.58;;;10.00;89.40;;;;;;5054807;28;20194;-65
2022/10/31 03:07:04;;;;;;;8.25;4.20;;;9.90;90.50;;;;;;5054054;28;20647;-65
2022/10/31 03:09:41;;;;;;;5.65;3.67;;;9.90;91.40;;;;;;5054711;28;20256;-65
2022/10/31 03:12:12;;;;;;;8.23;3.63;;;9.90;91.60;;;;;;5054089;28;20190;-65
2022/10/31 03:14:47;;;;;;;7.18;3.58;;;9.90;91.70;;;;;;5054653;28;20540;-65
2022/10/31 03:17:22;;;;;;;6.13;3.70;;;9.90;91.70;;;;;;5053372;28;20275;-65
2022/10/31 03:19:53;;;;;;;10.10;3.45;;;10.00;91.00;;;;;;5054450;28;20225;-65
2022/10/31 03:22:23;;;;;;;7.45;3.88;;;9.90;91.60;;;;;;5053539;28;20236;-65
2022/10/31 03:24:53;;;;;;;7.28;3.67;;;9.90;92.10;;;;;;5054147;28;20252;-65
2022/10/31 03:27:25;;;;;;;5.55;3.40;;;9.90;92.20;;;;;;5053987;28;20201;-65
2022/10/31 03:29:55;;;;;;;8.52;4.60;;;10.00;91.80;;;;;;5054202;28;20244;-66
2022/10/31 03:32:26;;;;;;;7.53;3.97;;;10.00;91.90;;;;;;5053486;28;20198;-65
2022/10/31 03:34:58;;;;;;;5.88;3.47;;;10.10;91.80;;;;;;5054026;28;20268;-65
2022/10/31 03:37:28;;;;;;;8.68;4.20;;;10.10;91.80;;;;;;5053645;28;20198;-65
2022/10/31 03:39:58;;;;;;;9.55;4.13;;;10.10;91.60;;;;;;5053893;28;20241;-65
2022/10/31 03:42:27;;;;;;;7.03;4.65;;;10.10;91.20;;;;;;5053223;28;20194;-65
2022/10/31 03:44:59;;;;;;;6.22;3.95;;;10.10;91.30;;;;;;5053866;28;20240;-65
2022/10/31 03:47:29;;;;;;;5.15;3.63;;;10.10;91.10;;;;;;5053416;28;20244;-65
2022/10/31 03:49:56;;;;;;;5.50;3.25;;;10.10;91.30;;;;;;5053837;28;20213;-65
2022/10/31 03:52:28;;;;;;;7.88;3.20;;;10.10;91.40;;;;;;5053354;28;20277;-65
2022/10/31 03:54:59;;;;;;;8.43;3.50;;;10.10;91.40;;;;;;5053816;28;20194;-65
2022/10/31 03:57:31;;;;;;;4.95;2.90;;;10.10;91.30;;;;;;5053374;28;20190;-65
2022/10/31 04:00:02;;;;;;;5.63;3.55;;;10.10;91.00;;;;;;5053094;28;20232;-65
2022/10/31 04:02:33;;;;;;;6.72;2.97;;;10.00;90.80;;;;;;5053686;28;20186;-65
2022/10/31 04:05:01;;;;;;;7.68;3.22;;;10.00;90.80;;;;;;5053220;28;20186;-65
2022/10/31 04:07:31;;;;;;;5.70;3.33;;;10.00;90.60;;;;;;5053830;28;20558;-65
2022/10/31 04:10:01;;;;;;;5.80;2.75;;;10.00;90.10;;;;;;5053641;28;20187;-65
2022/10/31 04:12:30;;;;;;;6.90;4.45;;;9.90;90.40;;;;;;5052923;28;20190;-66
2022/10/31 04:14:58;;;;;;;5.18;2.80;;;9.90;90.30;;;;;;5053498;28;20187;-65
2022/10/31 04:17:30;;;;;;;5.18;3.20;;;9.90;90.30;;;;;;5053509;28;20218;-65
2022/10/31 04:20:02;;;;;;;8.05;3.47;;;9.80;90.30;;;;;;5052696;28;20214;-65
2022/10/31 04:22:29;;;;;;;5.15;2.72;;;9.80;90.40;;;;;;5053391;28;20201;-65
2022/10/31 04:24:56;;;;;;;5.75;3.00;;;9.80;90.30;;;;;;5052933;28;20643;-65
2022/10/31 04:27:24;;;;;;;5.40;2.95;;;9.70;90.40;;;;;;5053223;28;20202;-65
2022/10/31 04:29:51;;;;;;;7.13;3.53;;;9.60;91.00;;;;;;5052215;28;20205;-64
2022/10/31 04:32:18;;;;;;;7.30;4.30;;;9.60;91.50;;;;;;5052999;28;20190;-66
2022/10/31 04:34:45;;;;;;;6.40;3.78;;;9.60;91.50;;;;;;5052733;28;20193;-65
2022/10/31 04:37:14;;;;;;;13.20;4.38;;;9.60;91.40;;;;;;5053235;28;20191;-65
2022/10/31 04:39:41;;;;;;;5.60;4.25;;;9.50;91.70;;;;;;5052604;28;20223;-65
2022/10/31 04:42:08;;;;;;;6.93;4.63;;;9.50;91.90;;;;;;5052781;28;20197;-65
2022/10/31 04:44:36;;;;;;;6.22;3.65;;;9.50;91.50;;;;;;5052716;28;20187;-67
2022/10/31 04:47:03;;;;;;;7.75;4.25;;;9.50;91.30;;;;;;5053023;28;20194;-65
2022/10/31 04:49:30;;;;;;;8.95;3.70;;;9.50;91.20;;;;;;5052042;28;20668;-66
2022/10/31 04:51:57;;;;;;;5.30;3.60;;;9.50;91.20;;;;;;5052513;28;20186;-66
2022/10/31 04:54:25;;;;;;;7.63;3.50;;;9.50;90.90;;;;;;5052435;28;20275;-65
2022/10/31 04:56:53;;;;;;;10.18;2.70;;;9.40;90.70;;;;;;5052305;28;20186;-68
2022/10/31 04:59:20;;;;;;;4.93;2.90;;;9.40;90.70;;;;;;5052918;28;20244;-65
2022/10/31 05:01:47;;;;;;;7.10;3.25;;;9.30;90.70;;;;;;5052360;28;20236;-65
2022/10/31 05:04:14;;;;;;;6.40;3.63;;;9.30;90.80;;;;;;5053109;28;20190;-66
2022/10/31 05:06:44;;;;;;;4.68;3.40;;;9.30;91.00;;;;;;5052153;28;20216;-65
2022/10/31 05:09:11;;;;;;;6.07;2.80;;;9.30;91.10;;;;;;5052609;28;20644;-65
2022/10/31 05:11:40;;;;;;;4.47;2.53;;;9.30;91.10;;;;;;5052532;28;20187;-65
2022/10/31 05:14:07;;;;;;;5.82;2.92;;;9.20;91.10;;;;;;5052911;28;20191;-65
2022/10/31 05:16:34;;;;;;;7.10;3.42;;;9.20;91.20;;;;;;5051985;28;20218;-67
2022/10/31 05:19:01;;;;;;;3.55;2.47;;;9.20;91.20;;;;;;5052635;28;20218;-65
2022/10/31 05:21:28;;;;;;;6.20;3.47;;;9.20;91.10;;;;;;5052321;28;20191;-66
2022/10/31 05:23:55;;;;;;;7.05;3.08;;;9.10;90.80;;;;;;5052639;28;20193;-66
2022/10/31 05:26:23;;;;;;;7.80;3.35;;;9.20;91.10;;;;;;5052325;28;20256;-66
2022/10/31 05:28:51;;;;;;;7.38;5.15;;;9.20;91.00;;;;;;5052588;28;20264;-65
2022/10/31 05:31:18;;;;;;;8.95;4.40;;;9.10;91.00;;;;;;5051934;28;20187;-65
2022/10/31 05:33:46;;;;;;;8.32;5.25;;;9.20;91.20;;;;;;5052682;28;20640;-65
2022/10/31 05:36:13;;;;;;;7.65;4.70;;;9.10;91.50;;;;;;5052368;28;20701;-66
2022/10/31 05:38:40;;;;;;;6.70;5.40;;;9.10;91.80;;;;;;5052180;28;20237;-66
2022/10/31 05:41:07;;;;;;;8.15;4.45;;;9.10;92.10;;;;;;5054505;28;20197;-66
2022/10/31 05:43:34;;;;;;;12.52;4.93;;;9.10;91.90;;;;;;5056678;28;20284;-65
2022/10/31 05:46:03;;;;;;;11.23;3.75;;;9.10;92.20;;;;;;5056226;28;20236;-65
2022/10/31 05:48:30;;;;;;;11.15;3.83;;;9.10;92.30;;;;;;5056254;28;20213;-65
2022/10/31 05:50:57;;;;;;;8.38;3.95;;;9.10;92.50;;;;;;5056019;28;20198;-66
2022/10/31 05:53:24;;;;;;;6.82;3.85;;;9.10;92.70;;;;;;5056093;28;20194;-66
2022/10/31 05:55:51;;;;;;;6.13;4.15;;;9.10;93.00;;;;;;5036341;28;20274;-66
2022/10/31 05:58:18;;;;;;;6.45;4.55;;;9.10;92.40;;;;;;5036352;28;20252;-65
2022/10/31 06:00:45;;;;;;;8.13;5.97;;;9.10;92.30;;;;;;5054700;28;20210;-65
2022/10/31 06:03:14;;;;;;;7.63;4.30;;;9.10;92.00;;;;;;5056122;28;20198;-65
2022/10/31 06:05:41;;;;;;;8.85;3.83;;;9.10;92.10;;;;;;5055865;28;20698;-66
2022/10/31 06:08:08;;;;;;;9.77;3.45;;;9.10;92.50;;;;;;5055986;28;20659;-66
2022/10/31 06:10:35;;;;;;;14.95;4.20;;;9.10;92.50;;;;;;5055400;28;20217;-65
2022/10/31 06:13:03;;;;;;;5.88;2.88;;;9.10;92.80;;;;;;5055836;28;20205;-69
2022/10/31 06:15:30;;;;;;;11.50;3.70;;;9.10;93.30;;;;;;5055023;28;20194;-65
2022/10/31 06:18:03;;;;;;;7.70;4.03;;;9.10;93.70;;;;;;5055848;28;20207;-66
2022/10/31 06:20:32;;;;;;;7.85;3.88;;;9.20;93.90;;;;;;5055028;28;20214;-65
2022/10/31 06:22:59;;;;;;;6.18;3.80;;;9.30;93.90;;;;;;5055605;28;20202;-66
2022/10/31 06:25:27;;;;;;;13.65;4.35;;;9.40;93.90;;;;;;5051819;28;20653;-66
2022/10/31 06:27:55;;;;;;;8.13;4.05;;;9.50;93.80;;;;;;5053479;28;20286;-66
2022/10/31 06:30:22;;;;;;;7.70;4.03;;;9.70;93.90;;;;;;5053470;28;20191;-69
2022/10/31 06:32:50;;;;;;;8.13;4.07;;;9.80;93.80;;;;;;5053967;28;20201;-66
2022/10/31 06:35:18;;;;;;;12.25;5.40;;;10.00;93.30;;;;;;5052864;28;20276;-67
2022/10/31 06:37:54;;;;;;;8.40;5.15;;;10.20;92.70;;;;;;5049422;28;20186;-67
2022/10/31 06:40:21;;;;;;;14.18;5.65;;;10.50;92.50;;;;;;5053735;28;20225;-66
2022/10/31 06:42:56;;;;;;;12.88;4.95;;;10.60;92.00;;;;;;5052499;28;20197;-67
2022/10/31 06:45:24;;;;;;;7.75;5.93;;;10.90;91.70;;;;;;5052671;28;20182;-66
2022/10/31 06:47:53;;;;;;;16.55;10.52;;;11.00;91.20;;;;;;5053007;28;20236;-66
2022/10/31 06:50:20;;;;;;;16.80;11.57;;;11.20;90.30;;;;;;5052532;28;20225;-67
2022/10/31 06:52:52;;;;;;;13.45;9.40;;;11.30;90.10;;;;;;5052462;28;20612;-66
2022/10/31 06:55:23;;;;;;;16.85;11.57;;;11.60;90.30;;;;;;5052278;28;20664;-67
2022/10/31 06:57:53;;;;;;;21.45;10.75;;;11.80;88.30;;;;;;5052606;28;20652;-67
2022/10/31 07:00:21;;;;;;;14.02;9.35;;;12.10;88.60;;;;;;5053128;28;20251;-64
2022/10/31 07:02:58;;;;;;;10.57;7.25;;;12.50;87.70;;;;;;5049316;28;20540;-68
2022/10/31 07:05:26;;;;;;;11.68;6.15;;;12.80;83.50;;;;;;5049834;28;20194;-66
2022/10/31 07:07:55;;;;;;;15.15;6.35;;;13.00;84.40;;;;;;5051801;28;20205;-65
2022/10/31 07:10:25;;;;;;;7.55;4.78;;;13.30;83.30;;;;;;5051766;28;20198;-65
2022/10/31 07:12:56;;;;;;;9.88;4.53;;;13.70;81.90;;;;;;5050916;28;20198;-66
2022/10/31 07:15:23;;;;;;;7.72;4.65;;;14.20;81.40;;;;;;5051226;28;20198;-66
2022/10/31 07:17:51;;;;;;;11.93;6.38;;;14.60;79.10;;;;;;5051061;28;20672;-66
2022/10/31 07:20:18;;;;;;;6.47;4.70;;;15.10;75.70;;;;;;5050827;28;20222;-66
2022/10/31 07:22:45;;;;;;;10.85;5.40;;;15.50;74.40;;;;;;5048946;28;20230;-66
2022/10/31 07:25:16;;;;;;;11.07;6.77;;;15.80;72.20;;;;;;5051819;28;20973;-66
2022/10/31 07:27:44;;;;;;;10.93;6.30;;;16.20;71.20;;;;;;5051365;28;20504;-66
2022/10/31 07:30:13;;;;;;;8.47;5.53;;;16.60;67.80;;;;;;5051203;28;20524;-66
2022/10/31 07:32:41;;;;;;;7.87;6.10;;;16.90;66.20;;;;;;5050971;28;20464;-68
2022/10/31 07:35:09;;;;;;;8.20;6.20;;;17.20;66.30;;;;;;5051118;28;20436;-66
2022/10/31 07:37:36;;;;;;;8.83;5.30;;;17.60;64.10;;;;;;5050649;28;20450;-67
2022/10/31 07:40:04;;;;;;;6.10;4.43;;;18.10;61.90;;;;;;5050755;28;20487;-67
2022/10/31 07:42:36;;;;;;;9.03;5.73;;;18.50;61.30;;;;;;5050965;28;20490;-67
2022/10/31 07:45:04;;;;;;;8.67;4.90;;;18.90;58.30;;;;;;5050665;28;20988;-67
2022/10/31 07:47:31;;;;;;;8.83;4.77;;;19.30;58.50;;;;;;5050930;28;20445;-67
2022/10/31 07:50:02;;;;;;;14.10;4.87;;;19.70;56.60;;;;;;5051267;28;20488;-67
2022/10/31 07:52:29;;;;;;;7.87;4.10;;;20.20;55.30;;;;;;5051319;28;20479;-68
2022/10/31 07:54:56;;;;;;;10.77;4.63;;;20.50;54.00;;;;;;5049054;28;20441;-67
2022/10/31 07:57:23;;;;;;;8.10;4.10;;;21.00;52.30;;;;;;5050417;28;20444;-67
2022/10/31 07:59:52;;;;;;;14.23;4.50;;;21.50;51.40;;;;;;5051653;28;20916;-67
2022/10/31 08:02:19;;;;;;;7.50;4.23;;;22.00;50.50;;;;;;5045766;28;20882;-68
2022/10/31 08:04:46;;;;;;;6.43;3.53;;;22.60;49.40;;;;;;5048300;28;20437;-67
2022/10/31 08:07:12;;;;;;;7.67;3.80;;;23.10;47.90;;;;;;5049496;28;21787;-68
2022/10/31 08:09:39;;;;;;;7.47;3.97;;;23.60;47.70;;;;;;5050250;28;20472;-67
2022/10/31 08:12:07;;;;;;;12.00;4.00;;;24.10;46.70;;;;;;5050046;28;20483;-70
2022/10/31 08:14:33;;;;;;;8.83;4.87;;;24.70;44.20;;;;;;5050257;28;20530;-67
2022/10/31 08:17:02;;;;;;;6.40;3.90;;;25.20;43.10;;;;;;5050341;28;20585;-67
2022/10/31 08:19:29;;;;;;;9.63;3.40;;;25.70;42.30;;;;;;5050246;28;20436;-66
2022/10/31 08:21:56;;;;;;;7.63;4.17;;;26.20;41.20;;;;;;5050214;28;20524;-66
2022/10/31 08:24:23;;;;;;;10.40;5.00;;;26.40;39.50;;;;;;5049553;28;20440;-66
2022/10/31 08:26:50;;;;;;;10.47;5.00;;;26.50;39.10;;;;;;5046283;28;20441;-67
2022/10/31 08:29:17;;;;;;;7.70;3.10;;;26.80;38.60;;;;;;5050835;28;20433;-66
2022/10/31 08:31:44;;;;;;;5.97;2.87;;;26.90;37.90;;;;;;5050709;28;20544;-66
2022/10/31 08:34:12;;;;;;;9.83;3.10;;;27.00;38.20;;;;;;5048550;28;20522;-66
2022/10/31 08:36:39;;;;;;;7.87;2.93;;;26.80;37.50;;;;;;5049506;28;20441;-70
2022/10/31 08:39:09;;;;;;;5.53;2.07;;;26.40;37.40;;;;;;5049707;28;20527;-66
2022/10/31 08:41:36;;;;;;;5.10;2.57;;;26.10;38.20;;;;;;5047482;28;21066;-66
2022/10/31 08:44:03;;;;;;;5.50;2.30;;;26.10;39.20;;;;;;5050319;28;20942;-66
2022/10/31 08:46:31;;;;;;;7.40;2.67;;;26.70;39.00;;;;;;5048502;28;20484;-68
2022/10/31 08:48:58;;;;;;;6.00;3.33;;;27.70;38.70;;;;;;5049570;28;20529;-68
2022/10/31 08:51:26;;;;;;;4.97;2.30;;;28.80;36.60;;;;;;5050621;28;20496;-66
2022/10/31 08:53:53;;;;;;;5.27;3.07;;;29.50;34.60;;;;;;5049005;28;20832;-67
2022/10/31 08:56:22;;;;;;;3.87;1.90;;;30.00;33.20;;;;;;5048348;28;20445;-66
2022/10/31 08:58:50;;;;;;;7.07;2.33;;;30.00;32.20;;;;;;5049190;28;20529;-67
2022/10/31 09:01:21;;;;;;;4.47;2.10;;;30.10;32.20;;;;;;5049290;28;20484;-67
2022/10/31 09:03:49;;;;;;;6.33;2.30;;;30.20;31.30;;;;;;5048756;28;20463;-66
2022/10/31 09:06:18;;;;;;;6.50;2.00;;;29.70;31.30;;;;;;5048667;28;20441;-67
2022/10/31 09:08:49;;;;;;;6.70;2.60;;;29.10;31.90;;;;;;5045163;28;20447;-66
2022/10/31 09:11:16;;;;;;;8.40;2.27;;;28.30;31.60;;;;;;5049250;28;20437;-66
2022/10/31 09:13:44;;;;;;;10.37;2.50;;;27.80;32.70;;;;;;5049279;28;20441;-69
2022/10/31 09:16:14;;;;;;;11.63;2.50;;;27.90;33.10;;;;;;5047816;28;20464;-68
2022/10/31 09:18:41;;;;;;;7.13;2.67;;;28.90;32.20;;;;;;5049633;28;20458;-67
2022/10/31 09:21:14;;;;;;;11.70;2.70;;;30.20;30.00;;;;;;5049321;28;20492;-67
2022/10/31 09:23:43;;;;;;;11.57;2.90;;;32.10;30.00;;;;;;5049095;28;20440;-67
2022/10/31 09:26:15;;;;;;;8.00;3.17;;;33.70;27.10;;;;;;5048779;28;20494;-67
2022/10/31 09:28:44;;;;;;;11.83;3.20;;;34.50;25.60;;;;;;5049123;28;20441;-69
2022/10/31 09:31:11;;;;;;;7.43;3.47;;;35.10;26.00;;;;;;5049122;28;20475;-67
2022/10/31 09:33:40;;;;;;;5.30;2.73;;;36.10;25.60;;;;;;5049799;28;20441;-67
2022/10/31 09:36:12;;;;;;;7.00;2.73;;;36.30;24.20;;;;;;5048202;28;20891;-69
2022/10/31 09:38:39;;;;;;;8.20;3.40;;;35.90;23.10;;;;;;5049530;28;20469;-67
2022/10/31 09:41:21;;;;;;;7.60;2.47;;;35.20;24.20;;;;;;5048925;28;20452;-68
2022/10/31 09:43:58;;;;;;;10.20;3.63;;;34.90;24.90;;;;;;5046512;28;20524;-67
2022/10/31 09:46:36;;;;;;;5.73;3.10;;;34.40;24.90;;;;;;5047695;28;20441;-67
2022/10/31 09:49:25;;;;;;;7.40;3.93;;;33.60;25.80;;;;;;5048611;28;20448;-67
2022/10/31 09:51:59;;;;;;;7.10;2.27;;;33.30;26.40;;;;;;5047376;28;20496;-67
2022/10/31 09:54:33;;;;;;;7.60;2.77;;;33.00;26.90;;;;;;5049009;28;20452;-67
2022/10/31 09:57:02;;;;;;;7.80;2.50;;;32.90;26.70;;;;;;5048813;28;20990;-67
2022/10/31 09:59:40;;;;;;;9.03;2.87;;;32.30;26.80;;;;;;5048963;28;20453;-67
2022/10/31 10:02:19;;;;;;;6.30;2.63;;;31.50;27.20;;;;;;5046550;28;20472;-68
2022/10/31 10:04:54;;;;;;;4.13;2.30;;;30.60;28.40;;;;;;5046763;28;20443;-67
2022/10/31 10:07:39;;;;;;;5.07;2.67;;;29.80;29.10;;;;;;5048208;28;20476;-66
2022/10/31 10:10:16;;;;;;;5.40;2.50;;;29.10;30.00;;;;;;5049647;28;20526;-66
2022/10/31 10:13:13;;;;;;;8.03;3.03;;;28.50;30.80;;;;;;5049277;28;20447;-67
2022/10/31 10:15:58;;;;;;;11.80;2.33;;;28.20;32.10;;;;;;5047418;28;20449;-67
2022/10/31 10:18:37;;;;;;;8.97;3.07;;;27.70;32.70;;;;;;5046339;28;20449;-67
2022/10/31 10:21:21;;;;;;;10.27;2.97;;;27.10;34.00;;;;;;5048965;28;20445;-68
2022/10/31 10:24:05;;;;;;;7.70;3.00;;;26.70;35.20;;;;;;5049072;28;20452;-65
2022/10/31 10:26:37;;;;;;;5.73;2.40;;;26.50;35.20;;;;;;5048413;28;20452;-68
2022/10/31 10:29:23;;;;;;;9.13;3.20;;;26.70;36.20;;;;;;5052477;28;20447;-67
2022/10/31 10:31:54;;;;;;;7.67;3.50;;;27.20;35.80;;;;;;5052431;28;20615;-67
2022/10/31 10:34:26;;;;;;;8.33;2.87;;;27.90;34.20;;;;;;5052391;28;20806;-69
2022/10/31 10:36:58;;;;;;;6.60;2.87;;;28.10;34.20;;;;;;5048852;28;20475;-67
2022/10/31 10:39:31;;;;;;;10.07;2.97;;;28.20;33.20;;;;;;5052182;28;20444;-68
2022/10/31 10:47:42;;;;;;;5.30;2.37;;;29.40;31.60;;;;;;5051418;28;20436;-67
2022/10/31 10:50:17;;;;;;;10.00;4.77;;;30.60;30.40;;;;;;5051412;28;20443;-69
2022/10/31 10:52:58;;;;;;;7.73;2.80;;;31.00;29.10;;;;;;5051842;28;20532;-67
2022/10/31 10:55:37;;;;;;;11.17;4.50;;;31.20;29.40;;;;;;5049474;28;20468;-67
2022/10/31 10:58:10;;;;;;;6.90;2.63;;;31.40;28.60;;;;;;5051277;28;20440;-68
2022/10/31 11:00:41;;;;;;;15.00;3.00;;;31.40;28.10;;;;;;5052264;28;20444;-65
2022/10/31 11:03:12;;;;;;;9.67;2.50;;;31.50;27.50;;;;;;5051355;28;20437;-68
2022/10/31 11:05:46;;;;;;;7.13;2.73;;;31.30;27.70;;;;;;5050918;28;20440;-67
2022/10/31 11:08:25;;;;;;;5.97;3.00;;;30.90;28.40;;;;;;5051983;28;20486;-66
2022/10/31 11:11:04;;;;;;;7.13;2.77;;;30.10;29.10;;;;;;5050950;28;20517;-67
2022/10/31 11:13:37;;;;;;;6.57;2.47;;;29.60;29.80;;;;;;5052005;28;20531;-67
2022/10/31 11:16:10;;;;;;;8.23;2.60;;;28.90;30.50;;;;;;5048665;28;20469;-68
2022/10/31 11:18:40;;;;;;;4.07;2.23;;;28.10;31.40;;;;;;5052349;28;20453;-66
2022/10/31 11:21:20;;;;;;;7.47;2.83;;;27.40;32.90;;;;;;5049102;28;20528;-67
2022/10/31 11:23:47;;;;;;;5.60;3.00;;;26.80;34.60;;;;;;5050605;28;20488;-66
2022/10/31 11:26:21;;;;;;;5.77;2.40;;;26.30;35.50;;;;;;5051329;28;20500;-67
2022/10/31 11:28:58;;;;;;;4.63;2.67;;;25.90;36.50;;;;;;5050663;28;20517;-67
2022/10/31 11:31:27;;;;;;;9.00;5.00;;;25.60;36.40;;;;;;5051715;28;20499;-68
2022/10/31 11:34:00;;;;;;;8.60;4.67;;;25.40;37.40;;;;;;5051215;28;20846;-67
2022/10/31 11:36:30;;;;;;;6.17;2.80;;;25.20;37.10;;;;;;5047417;28;20503;-67
2022/10/31 11:39:02;;;;;;;4.67;2.40;;;25.10;38.30;;;;;;5048695;28;20507;-67
2022/10/31 11:41:31;;;;;;;10.70;3.07;;;25.00;38.00;;;;;;5050505;28;20432;-70
2022/10/31 11:44:02;;;;;;;9.30;3.37;;;24.80;39.00;;;;;;5050817;28;20443;-67
2022/10/31 11:46:37;;;;;;;7.67;2.30;;;24.90;39.30;;;;;;5050927;28;20441;-67
2022/10/31 11:49:12;;;;;;;2.90;1.80;;;25.00;38.90;;;;;;5050980;28;20436;-68
2022/10/31 11:51:43;;;;;;;8.70;3.00;;;25.20;38.90;;;;;;5051016;28;21057;-67
2022/10/31 11:54:22;;;;;;;8.33;3.33;;;25.60;39.40;;;;;;5050214;28;20445;-67
2022/10/31 11:56:49;;;;;;;7.10;2.93;;;26.30;38.80;;;;;;5049546;28;20449;-68
2022/10/31 11:59:24;;;;;;;8.00;2.80;;;27.50;38.70;;;;;;5046997;28;20444;-67
2022/10/31 12:01:54;;;;;;;4.67;2.33;;;29.20;35.50;;;;;;5048643;28;20589;-68
2022/10/31 12:04:28;;;;;;;6.43;2.60;;;30.30;33.00;;;;;;5049762;28;20440;-69
2022/10/31 12:06:56;;;;;;;6.13;2.37;;;31.00;31.20;;;;;;5047372;28;20482;-67
2022/10/31 12:09:25;;;;;;;10.30;3.20;;;30.80;30.10;;;;;;5050743;28;20499;-66
2022/10/31 12:12:11;;;;;;;7.80;2.50;;;30.50;29.90;;;;;;5050427;28;20483;-67
2022/10/31 12:14:50;;;;;;;7.70;2.40;;;30.40;30.60;;;;;;5050784;28;20473;-67
2022/10/31 12:17:29;;;;;;;4.67;2.03;;;30.30;30.40;;;;;;5048714;28;20526;-66
2022/10/31 12:20:08;;;;;;;4.77;2.90;;;30.30;30.40;;;;;;5049451;28;20506;-67
2022/10/31 12:22:45;;;;;;;6.40;2.73;;;30.20;29.90;;;;;;5048897;28;20449;-67
2022/10/31 12:25:26;;;;;;;11.00;2.90;;;29.90;29.80;;;;;;5049135;28;20484;-66
2022/10/31 12:28:12;;;;;;;9.60;2.60;;;29.40;29.80;;;;;;5046132;28;20509;-67
2022/10/31 12:30:55;;;;;;;7.27;2.77;;;28.90;31.60;;;;;;5049936;28;20436;-67
2022/10/31 12:33:36;;;;;;;7.20;3.40;;;28.50;32.10;;;;;;5046260;28;20472;-65
2022/10/31 12:36:19;;;;;;;7.57;2.77;;;28.10;32.90;;;;;;5049197;28;20433;-66
2022/10/31 12:39:03;;;;;;;6.63;2.40;;;27.60;34.10;;;;;;5050352;28;20552;-66
2022/10/31 12:41:46;;;;;;;5.20;2.47;;;27.20;35.00;;;;;;5048394;28;20464;-66
2022/10/31 12:44:24;;;;;;;6.07;2.20;;;26.70;35.40;;;;;;5050040;28;20448;-67
2022/10/31 12:47:07;;;;;;;5.43;2.60;;;26.40;36.40;;;;;;5048473;28;20449;-67
2022/10/31 12:49:44;;;;;;;9.60;3.30;;;26.20;37.40;;;;;;5047892;28;20472;-66
2022/10/31 12:52:28;;;;;;;8.83;3.37;;;25.90;38.80;;;;;;5050449;28;20496;-67
2022/10/31 12:55:10;;;;;;;5.90;2.90;;;25.80;39.70;;;;;;5048857;28;20459;-66
2022/10/31 12:57:43;;;;;;;6.20;3.10;;;25.50;39.40;;;;;;5048967;28;20541;-66
2022/10/31 13:00:15;;;;;;;8.27;2.60;;;25.10;40.00;;;;;;5050241;28;20938;-65
2022/10/31 13:02:49;;;;;;;5.47;3.03;;;24.80;40.30;;;;;;5048145;28;20452;-67
2022/10/31 13:05:25;;;;;;;7.33;2.80;;;24.50;41.10;;;;;;5050343;28;20543;-66
2022/10/31 13:07:57;;;;;;;9.57;2.83;;;24.20;42.00;;;;;;5049518;28;20471;-68
2022/10/31 13:10:30;;;;;;;6.13;2.63;;;24.00;42.30;;;;;;5049898;28;20448;-66
2022/10/31 13:13:06;;;;;;;9.43;2.60;;;23.90;42.10;;;;;;5050232;28;21019;-66